Antonio Maceo International Airport
MUCU : now visible

Airfield :











YOU CAN JOIN US ON...

 
LOGIN :

Register | Disclaimer

   EN    FR    IT 

 









Legend :    VFR   Marginal VFR   IFR   Intensive IFR   Very Intensive IFR
Visi :
Ceiling :
>= 8 km
>= 3000ft
5 to 8 km
1000 to 3000 ft
1500m to 5 km
500 to 1000 ft
800 to 1500m
200 to 500 ft
< 800m
< 200 ft
Symbols :   Thunderstorms  Fog  Heavy snow  Heavy precipitations  Wind > 20 kt






- Airport Elevation : 249 ft
- IATA code : SCU


MUCU - Antonio Maceo International

CURRENT METAR :
  • 231550Z 18005KT 130V210 9000 SCT020CB 29/21 Q1014

EXPIRED METARs :
  • 231450Z 16004KT 090V230 9000 FEW020 BKN110 29/20 Q1014
  • 231350Z 01006KT 340V050 9000 FEW020 SCT060 28/20 Q1013
  • 231250Z 02005KT 350V060 9000 FEW020CB SCT060 26/21 Q1014
  • 231150Z 35005KT 9000 FEW020CB SCT060 24/21 Q1014

TAF MUCU
Valid from the 23 at 12:00 until the 24 at 12:00 UTC


231100Z 2312/2412 VRB04KT 9000 SCT020 BKN090
TEMPO 2312/2318 5000 SHRA RA SCT020CB BKN020
TEMPO 2319/2324 VRB10KT 3000 TSRA RA SCT018CB BKN020
MUFH FIR / North America



MET'MAP, your aeronautical weather chart ! - Copyright ORBIFLY December 2007 - Disclaimer

ORBIFLY MET'MAP TEAM :

Programming & Development : Alexandra Zaïnal
Original concept : Baudouin d'Aumeries
Technical & hardware support : Manuel Goepfert
Assistance : Marc-Olivier Méhu




SOURCES & CREDITS :

   NOAA       Earth
Advisory